sensor_id;sensor_type;location;lat;lon;timestamp;temperature;humidity
42037;DHT22;30340;52.004;5.908;2023-03-14T00:01:32;13.20;80.90
42037;DHT22;30340;52.004;5.908;2023-03-14T00:03:58;13.30;80.90
42037;DHT22;30340;52.004;5.908;2023-03-14T00:06:24;13.30;80.90
42037;DHT22;30340;52.004;5.908;2023-03-14T00:08:50;13.20;81.00
42037;DHT22;30340;52.004;5.908;2023-03-14T00:11:18;13.20;81.10
42037;DHT22;30340;52.004;5.908;2023-03-14T00:13:48;13.20;81.30
42037;DHT22;30340;52.004;5.908;2023-03-14T00:16:13;13.20;81.20
42037;DHT22;30340;52.004;5.908;2023-03-14T00:18:39;13.10;81.20
42037;DHT22;30340;52.004;5.908;2023-03-14T00:21:05;13.20;81.20
42037;DHT22;30340;52.004;5.908;2023-03-14T00:23:31;13.20;81.20
42037;DHT22;30340;52.004;5.908;2023-03-14T00:26:00;13.10;81.60
42037;DHT22;30340;52.004;5.908;2023-03-14T00:28:26;13.00;82.10
42037;DHT22;30340;52.004;5.908;2023-03-14T00:30:52;12.90;82.30
42037;DHT22;30340;52.004;5.908;2023-03-14T00:33:17;12.80;83.20
42037;DHT22;30340;52.004;5.908;2023-03-14T00:35:43;12.70;82.70
42037;DHT22;30340;52.004;5.908;2023-03-14T00:38:08;12.70;83.00
42037;DHT22;30340;52.004;5.908;2023-03-14T00:40:34;12.70;83.20
42037;DHT22;30340;52.004;5.908;2023-03-14T00:43:03;12.60;83.30
42037;DHT22;30340;52.004;5.908;2023-03-14T00:45:29;12.50;83.50
42037;DHT22;30340;52.004;5.908;2023-03-14T00:47:54;12.50;83.70
42037;DHT22;30340;52.004;5.908;2023-03-14T00:50:20;12.40;83.80
42037;DHT22;30340;52.004;5.908;2023-03-14T00:52:45;12.40;84.00
42037;DHT22;30340;52.004;5.908;2023-03-14T00:55:13;12.30;84.00
42037;DHT22;30340;52.004;5.908;2023-03-14T00:57:39;12.30;84.10
42037;DHT22;30340;52.004;5.908;2023-03-14T01:00:05;12.20;83.90
42037;DHT22;30340;52.004;5.908;2023-03-14T01:02:31;12.10;84.00
42037;DHT22;30340;52.004;5.908;2023-03-14T01:04:57;12.10;84.00
42037;DHT22;30340;52.004;5.908;2023-03-14T01:07:22;12.10;83.90
42037;DHT22;30340;52.004;5.908;2023-03-14T01:09:50;12.00;83.90
42037;DHT22;30340;52.004;5.908;2023-03-14T01:12:16;12.00;83.90
42037;DHT22;30340;52.004;5.908;2023-03-14T01:14:41;12.10;83.90
42037;DHT22;30340;52.004;5.908;2023-03-14T01:17:07;12.00;83.80
42037;DHT22;30340;52.004;5.908;2023-03-14T01:19:32;12.00;83.80
42037;DHT22;30340;52.004;5.908;2023-03-14T01:21:58;12.00;83.80
42037;DHT22;30340;52.004;5.908;2023-03-14T01:24:23;12.00;84.40
42037;DHT22;30340;52.004;5.908;2023-03-14T01:26:49;12.10;83.80
42037;DHT22;30340;52.004;5.908;2023-03-14T01:29:14;12.00;83.70
42037;DHT22;30340;52.004;5.908;2023-03-14T01:31:40;12.00;83.80
42037;DHT22;30340;52.004;5.908;2023-03-14T01:34:05;12.00;83.90
42037;DHT22;30340;52.004;5.908;2023-03-14T01:36:30;12.00;83.80
42037;DHT22;30340;52.004;5.908;2023-03-14T01:38:56;11.90;83.70
42037;DHT22;30340;52.004;5.908;2023-03-14T01:41:23;12.00;83.70
42037;DHT22;30340;52.004;5.908;2023-03-14T01:43:49;12.00;83.60
42037;DHT22;30340;52.004;5.908;2023-03-14T01:46:28;12.00;83.50
42037;DHT22;30340;52.004;5.908;2023-03-14T01:49:13;11.90;83.40
42037;DHT22;30340;52.004;5.908;2023-03-14T01:56:48;11.80;83.60
42037;DHT22;30340;52.004;5.908;2023-03-14T01:59:15;11.70;83.90
42037;DHT22;30340;52.004;5.908;2023-03-14T02:01:41;11.70;84.10
42037;DHT22;30340;52.004;5.908;2023-03-14T02:04:08;11.60;84.80
42037;DHT22;30340;52.004;5.908;2023-03-14T02:06:42;11.50;85.10
42037;DHT22;30340;52.004;5.908;2023-03-14T02:09:09;11.40;85.30
42037;DHT22;30340;52.004;5.908;2023-03-14T02:11:35;11.30;85.60
42037;DHT22;30340;52.004;5.908;2023-03-14T02:14:01;11.30;85.80
42037;DHT22;30340;52.004;5.908;2023-03-14T02:16:27;11.20;86.20
42037;DHT22;30340;52.004;5.908;2023-03-14T02:18:52;11.10;86.50
42037;DHT22;30340;52.004;5.908;2023-03-14T02:24:05;11.10;86.80
42037;DHT22;30340;52.004;5.908;2023-03-14T02:29:01;11.10;86.80
42037;DHT22;30340;52.004;5.908;2023-03-14T02:31:26;11.10;86.80
42037;DHT22;30340;52.004;5.908;2023-03-14T02:33:52;11.10;86.90
42037;DHT22;30340;52.004;5.908;2023-03-14T02:36:18;11.10;86.90
42037;DHT22;30340;52.004;5.908;2023-03-14T02:41:13;11.00;87.20
42037;DHT22;30340;52.004;5.908;2023-03-14T02:43:39;11.00;87.30
42037;DHT22;30340;52.004;5.908;2023-03-14T02:46:05;11.00;87.40
42037;DHT22;30340;52.004;5.908;2023-03-14T02:50:57;11.00;87.50
42037;DHT22;30340;52.004;5.908;2023-03-14T02:53:30;11.00;87.60
42037;DHT22;30340;52.004;5.908;2023-03-14T02:55:56;11.00;87.60
42037;DHT22;30340;52.004;5.908;2023-03-14T02:58:22;11.00;87.50
42037;DHT22;30340;52.004;5.908;2023-03-14T03:00:48;11.00;87.40
42037;DHT22;30340;52.004;5.908;2023-03-14T03:03:13;11.10;87.30
42037;DHT22;30340;52.004;5.908;2023-03-14T03:05:39;11.10;87.20
42037;DHT22;30340;52.004;5.908;2023-03-14T03:08:05;11.10;87.30
42037;DHT22;30340;52.004;5.908;2023-03-14T03:10:31;11.00;87.50
42037;DHT22;30340;52.004;5.908;2023-03-14T03:12:56;11.00;87.60
42037;DHT22;30340;52.004;5.908;2023-03-14T03:15:22;11.00;87.80
42037;DHT22;30340;52.004;5.908;2023-03-14T03:17:47;11.00;87.80
42037;DHT22;30340;52.004;5.908;2023-03-14T03:20:13;11.00;87.80
42037;DHT22;30340;52.004;5.908;2023-03-14T03:22:38;11.00;87.80
42037;DHT22;30340;52.004;5.908;2023-03-14T03:25:04;11.00;88.00
42037;DHT22;30340;52.004;5.908;2023-03-14T03:27:31;10.90;88.00
42037;DHT22;30340;52.004;5.908;2023-03-14T03:29:57;11.00;88.00
42037;DHT22;30340;52.004;5.908;2023-03-14T03:32:23;10.90;88.00
42037;DHT22;30340;52.004;5.908;2023-03-14T03:34:48;10.90;87.90
42037;DHT22;30340;52.004;5.908;2023-03-14T03:37:14;10.90;87.90
42037;DHT22;30340;52.004;5.908;2023-03-14T03:39:39;10.90;87.90
42037;DHT22;30340;52.004;5.908;2023-03-14T03:42:05;10.90;88.00
42037;DHT22;30340;52.004;5.908;2023-03-14T03:44:30;10.90;88.20
42037;DHT22;30340;52.004;5.908;2023-03-14T03:46:56;10.90;88.30
42037;DHT22;30340;52.004;5.908;2023-03-14T03:49:21;10.90;88.40
42037;DHT22;30340;52.004;5.908;2023-03-14T03:51:47;10.90;88.40
42037;DHT22;30340;52.004;5.908;2023-03-14T03:54:12;10.90;88.40
42037;DHT22;30340;52.004;5.908;2023-03-14T03:56:38;10.90;88.40
42037;DHT22;30340;52.004;5.908;2023-03-14T03:59:03;10.90;89.00
42037;DHT22;30340;52.004;5.908;2023-03-14T04:01:29;10.90;88.30
42037;DHT22;30340;52.004;5.908;2023-03-14T04:03:54;10.90;88.20
42037;DHT22;30340;52.004;5.908;2023-03-14T04:06:20;10.90;88.20
42037;DHT22;30340;52.004;5.908;2023-03-14T04:08:45;11.00;88.20
42037;DHT22;30340;52.004;5.908;2023-03-14T04:11:11;11.00;88.10
42037;DHT22;30340;52.004;5.908;2023-03-14T04:13:36;11.00;88.10
42037;DHT22;30340;52.004;5.908;2023-03-14T04:16:02;11.00;88.20
42037;DHT22;30340;52.004;5.908;2023-03-14T04:18:27;11.00;88.00
42037;DHT22;30340;52.004;5.908;2023-03-14T04:20:55;11.00;88.00
42037;DHT22;30340;52.004;5.908;2023-03-14T04:23:21;11.00;88.10
42037;DHT22;30340;52.004;5.908;2023-03-14T04:25:49;11.00;88.20
42037;DHT22;30340;52.004;5.908;2023-03-14T04:28:15;11.00;88.00
42037;DHT22;30340;52.004;5.908;2023-03-14T04:30:40;11.00;88.00
42037;DHT22;30340;52.004;5.908;2023-03-14T04:33:06;11.00;87.80
42037;DHT22;30340;52.004;5.908;2023-03-14T04:35:32;11.10;87.70
42037;DHT22;30340;52.004;5.908;2023-03-14T04:37:58;11.10;87.60
42037;DHT22;30340;52.004;5.908;2023-03-14T04:40:24;11.10;87.50
42037;DHT22;30340;52.004;5.908;2023-03-14T04:42:50;11.10;87.50
42037;DHT22;30340;52.004;5.908;2023-03-14T04:45:15;11.10;87.40
42037;DHT22;30340;52.004;5.908;2023-03-14T04:47:41;11.10;87.30
42037;DHT22;30340;52.004;5.908;2023-03-14T04:50:07;11.20;87.50
42037;DHT22;30340;52.004;5.908;2023-03-14T04:52:32;11.10;87.30
42037;DHT22;30340;52.004;5.908;2023-03-14T04:54:58;11.20;87.20
42037;DHT22;30340;52.004;5.908;2023-03-14T04:57:23;11.10;87.10
42037;DHT22;30340;52.004;5.908;2023-03-14T04:59:49;11.20;87.00
42037;DHT22;30340;52.004;5.908;2023-03-14T05:02:14;11.20;87.00
42037;DHT22;30340;52.004;5.908;2023-03-14T05:04:40;11.20;87.50
42037;DHT22;30340;52.004;5.908;2023-03-14T05:07:05;11.20;86.80
42037;DHT22;30340;52.004;5.908;2023-03-14T05:09:31;11.30;86.80
42037;DHT22;30340;52.004;5.908;2023-03-14T05:11:56;11.30;86.70
42037;DHT22;30340;52.004;5.908;2023-03-14T05:14:22;11.30;86.60
42037;DHT22;30340;52.004;5.908;2023-03-14T05:16:47;11.30;86.60
42037;DHT22;30340;52.004;5.908;2023-03-14T05:19:13;11.30;86.50
42037;DHT22;30340;52.004;5.908;2023-03-14T05:21:38;11.30;86.60
42037;DHT22;30340;52.004;5.908;2023-03-14T05:24:04;11.20;86.70
42037;DHT22;30340;52.004;5.908;2023-03-14T05:26:29;11.20;86.60
42037;DHT22;30340;52.004;5.908;2023-03-14T05:28:55;11.20;86.60
42037;DHT22;30340;52.004;5.908;2023-03-14T05:31:20;11.20;86.70
42037;DHT22;30340;52.004;5.908;2023-03-14T05:33:46;11.20;86.70
42037;DHT22;30340;52.004;5.908;2023-03-14T05:36:11;11.20;86.70
42037;DHT22;30340;52.004;5.908;2023-03-14T05:38:37;11.20;86.70
42037;DHT22;30340;52.004;5.908;2023-03-14T05:41:02;11.10;86.70
42037;DHT22;30340;52.004;5.908;2023-03-14T05:43:28;11.20;87.00
42037;DHT22;30340;52.004;5.908;2023-03-14T05:45:53;11.10;87.00
42037;DHT22;30340;52.004;5.908;2023-03-14T05:48:19;11.10;87.00
42037;DHT22;30340;52.004;5.908;2023-03-14T05:50:44;11.10;87.20
42037;DHT22;30340;52.004;5.908;2023-03-14T05:53:10;11.10;87.20
42037;DHT22;30340;52.004;5.908;2023-03-14T05:55:35;11.00;87.30
42037;DHT22;30340;52.004;5.908;2023-03-14T05:58:01;11.00;87.40
42037;DHT22;30340;52.004;5.908;2023-03-14T06:00:26;11.00;87.50
42037;DHT22;30340;52.004;5.908;2023-03-14T06:02:52;11.00;87.60
42037;DHT22;30340;52.004;5.908;2023-03-14T06:05:17;11.00;87.80
42037;DHT22;30340;52.004;5.908;2023-03-14T06:07:43;10.90;87.80
42037;DHT22;30340;52.004;5.908;2023-03-14T06:10:09;10.90;87.90
42037;DHT22;30340;52.004;5.908;2023-03-14T06:12:34;10.90;88.10
42037;DHT22;30340;52.004;5.908;2023-03-14T06:15:00;10.90;88.20
42037;DHT22;30340;52.004;5.908;2023-03-14T06:17:25;10.90;88.50
42037;DHT22;30340;52.004;5.908;2023-03-14T06:19:51;10.80;88.50
42037;DHT22;30340;52.004;5.908;2023-03-14T06:26:11;10.90;87.90
42037;DHT22;30340;52.004;5.908;2023-03-14T06:28:37;10.80;87.80
42037;DHT22;30340;52.004;5.908;2023-03-14T06:31:03;10.80;88.00
42037;DHT22;30340;52.004;5.908;2023-03-14T06:33:29;10.80;88.20
42037;DHT22;30340;52.004;5.908;2023-03-14T06:35:54;10.80;88.30
42037;DHT22;30340;52.004;5.908;2023-03-14T06:38:20;10.80;88.30
42037;DHT22;30340;52.004;5.908;2023-03-14T06:40:45;10.90;88.60
42037;DHT22;30340;52.004;5.908;2023-03-14T06:43:11;10.80;88.70
42037;DHT22;30340;52.004;5.908;2023-03-14T06:45:37;10.90;88.70
42037;DHT22;30340;52.004;5.908;2023-03-14T06:48:02;10.90;88.70
42037;DHT22;30340;52.004;5.908;2023-03-14T06:50:28;10.90;88.70
42037;DHT22;30340;52.004;5.908;2023-03-14T06:52:53;10.90;88.60
42037;DHT22;30340;52.004;5.908;2023-03-14T06:55:19;10.90;88.90
42037;DHT22;30340;52.004;5.908;2023-03-14T06:57:46;11.00;89.00
42037;DHT22;30340;52.004;5.908;2023-03-14T07:00:13;11.00;89.00
42037;DHT22;30340;52.004;5.908;2023-03-14T07:02:39;10.90;89.30
42037;DHT22;30340;52.004;5.908;2023-03-14T07:05:05;10.90;89.30
42037;DHT22;30340;52.004;5.908;2023-03-14T07:07:31;11.00;89.40
42037;DHT22;30340;52.004;5.908;2023-03-14T07:09:56;11.00;89.30
42037;DHT22;30340;52.004;5.908;2023-03-14T07:12:22;11.00;89.50
42037;DHT22;30340;52.004;5.908;2023-03-14T07:14:47;11.00;90.10
42037;DHT22;30340;52.004;5.908;2023-03-14T07:17:13;11.00;90.10
42037;DHT22;30340;52.004;5.908;2023-03-14T07:19:39;11.00;90.10
42037;DHT22;30340;52.004;5.908;2023-03-14T07:22:05;11.00;90.10
42037;DHT22;30340;52.004;5.908;2023-03-14T07:24:31;11.00;90.00
42037;DHT22;30340;52.004;5.908;2023-03-14T07:26:56;11.00;90.10
42037;DHT22;30340;52.004;5.908;2023-03-14T07:29:22;11.00;90.00
42037;DHT22;30340;52.004;5.908;2023-03-14T07:31:47;11.00;89.90
42037;DHT22;30340;52.004;5.908;2023-03-14T07:34:13;11.00;90.00
42037;DHT22;30340;52.004;5.908;2023-03-14T07:36:38;10.90;89.90
42037;DHT22;30340;52.004;5.908;2023-03-14T07:39:04;10.90;89.90
42037;DHT22;30340;52.004;5.908;2023-03-14T07:41:30;10.90;89.80
42037;DHT22;30340;52.004;5.908;2023-03-14T07:43:56;10.80;89.60
42037;DHT22;30340;52.004;5.908;2023-03-14T07:46:21;10.80;89.60
42037;DHT22;30340;52.004;5.908;2023-03-14T07:48:47;10.70;89.40
42037;DHT22;30340;52.004;5.908;2023-03-14T07:51:12;10.70;89.40
42037;DHT22;30340;52.004;5.908;2023-03-14T07:53:38;10.60;89.30
42037;DHT22;30340;52.004;5.908;2023-03-14T07:56:05;10.40;89.30
42037;DHT22;30340;52.004;5.908;2023-03-14T07:58:31;10.30;89.30
42037;DHT22;30340;52.004;5.908;2023-03-14T08:00:58;10.20;89.40
42037;DHT22;30340;52.004;5.908;2023-03-14T08:03:24;10.10;89.40
42037;DHT22;30340;52.004;5.908;2023-03-14T08:05:50;10.00;89.60
42037;DHT22;30340;52.004;5.908;2023-03-14T08:08:16;9.90;89.60
42037;DHT22;30340;52.004;5.908;2023-03-14T08:10:42;9.80;89.70
42037;DHT22;30340;52.004;5.908;2023-03-14T08:13:09;9.70;89.80
42037;DHT22;30340;52.004;5.908;2023-03-14T08:15:35;9.70;90.00
42037;DHT22;30340;52.004;5.908;2023-03-14T08:18:02;9.60;90.20
42037;DHT22;30340;52.004;5.908;2023-03-14T08:20:29;9.60;90.00
42037;DHT22;30340;52.004;5.908;2023-03-14T08:22:56;9.60;89.90
42037;DHT22;30340;52.004;5.908;2023-03-14T08:25:25;9.50;89.80
42037;DHT22;30340;52.004;5.908;2023-03-14T08:27:50;9.50;89.80
42037;DHT22;30340;52.004;5.908;2023-03-14T08:30:18;9.50;89.70
42037;DHT22;30340;52.004;5.908;2023-03-14T08:32:44;9.60;89.50
42037;DHT22;30340;52.004;5.908;2023-03-14T08:35:10;9.60;89.50
42037;DHT22;30340;52.004;5.908;2023-03-14T08:37:36;9.50;89.40
42037;DHT22;30340;52.004;5.908;2023-03-14T08:40:04;9.40;89.30
42037;DHT22;30340;52.004;5.908;2023-03-14T08:42:34;9.20;89.60
42037;DHT22;30340;52.004;5.908;2023-03-14T08:44:59;9.10;89.70
42037;DHT22;30340;52.004;5.908;2023-03-14T08:47:25;9.10;89.80
42037;DHT22;30340;52.004;5.908;2023-03-14T08:49:51;8.90;89.80
42037;DHT22;30340;52.004;5.908;2023-03-14T08:52:16;8.90;90.00
42037;DHT22;30340;52.004;5.908;2023-03-14T08:54:45;8.80;89.80
42037;DHT22;30340;52.004;5.908;2023-03-14T08:57:11;8.70;89.60
42037;DHT22;30340;52.004;5.908;2023-03-14T08:59:36;8.60;89.50
42037;DHT22;30340;52.004;5.908;2023-03-14T09:02:02;8.50;89.40
42037;DHT22;30340;52.004;5.908;2023-03-14T09:04:32;8.40;89.40
42037;DHT22;30340;52.004;5.908;2023-03-14T09:06:58;8.40;89.30
42037;DHT22;30340;52.004;5.908;2023-03-14T09:09:26;8.40;89.30
42037;DHT22;30340;52.004;5.908;2023-03-14T09:11:53;8.40;89.00
42037;DHT22;30340;52.004;5.908;2023-03-14T09:14:18;8.30;89.00
42037;DHT22;30340;52.004;5.908;2023-03-14T09:16:44;8.30;89.00
42037;DHT22;30340;52.004;5.908;2023-03-14T09:19:10;8.30;89.00
42037;DHT22;30340;52.004;5.908;2023-03-14T09:21:36;8.20;88.90
42037;DHT22;30340;52.004;5.908;2023-03-14T09:24:03;8.10;88.90
42037;DHT22;30340;52.004;5.908;2023-03-14T09:26:28;8.10;88.60
42037;DHT22;30340;52.004;5.908;2023-03-14T09:28:54;8.00;88.60
42037;DHT22;30340;52.004;5.908;2023-03-14T09:31:20;8.00;88.80
42037;DHT22;30340;52.004;5.908;2023-03-14T09:33:45;8.00;88.70
42037;DHT22;30340;52.004;5.908;2023-03-14T09:36:11;8.00;88.70
42037;DHT22;30340;52.004;5.908;2023-03-14T09:38:37;8.10;88.30
42037;DHT22;30340;52.004;5.908;2023-03-14T09:41:15;8.30;87.90
42037;DHT22;30340;52.004;5.908;2023-03-14T09:43:43;8.30;87.30
42037;DHT22;30340;52.004;5.908;2023-03-14T09:46:10;8.40;87.10
42037;DHT22;30340;52.004;5.908;2023-03-14T09:48:37;8.50;87.10
42037;DHT22;30340;52.004;5.908;2023-03-14T09:51:07;8.60;86.60
42037;DHT22;30340;52.004;5.908;2023-03-14T09:53:41;8.70;86.30
42037;DHT22;30340;52.004;5.908;2023-03-14T09:56:14;8.60;85.80
42037;DHT22;30340;52.004;5.908;2023-03-14T09:58:43;8.60;85.90
42037;DHT22;30340;52.004;5.908;2023-03-14T10:01:13;8.60;85.20
42037;DHT22;30340;52.004;5.908;2023-03-14T10:03:41;8.50;85.20
42037;DHT22;30340;52.004;5.908;2023-03-14T10:06:14;8.60;85.10
42037;DHT22;30340;52.004;5.908;2023-03-14T10:08:40;8.80;85.10
42037;DHT22;30340;52.004;5.908;2023-03-14T10:11:06;8.80;84.60
42037;DHT22;30340;52.004;5.908;2023-03-14T10:13:32;8.80;84.50
42037;DHT22;30340;52.004;5.908;2023-03-14T10:16:03;8.90;84.40
42037;DHT22;30340;52.004;5.908;2023-03-14T10:18:31;8.80;83.70
42037;DHT22;30340;52.004;5.908;2023-03-14T10:21:25;8.80;83.40
42037;DHT22;30340;52.004;5.908;2023-03-14T10:23:51;8.80;83.60
42037;DHT22;30340;52.004;5.908;2023-03-14T10:26:23;8.80;83.30
42037;DHT22;30340;52.004;5.908;2023-03-14T10:28:53;8.70;83.30
42037;DHT22;30340;52.004;5.908;2023-03-14T10:31:26;8.60;82.90
42037;DHT22;30340;52.004;5.908;2023-03-14T10:34:03;8.70;83.10
42037;DHT22;30340;52.004;5.908;2023-03-14T10:36:32;8.80;83.20
42037;DHT22;30340;52.004;5.908;2023-03-14T10:39:23;8.80;82.70
42037;DHT22;30340;52.004;5.908;2023-03-14T10:41:53;8.80;82.70
42037;DHT22;30340;52.004;5.908;2023-03-14T10:44:22;8.80;82.70
42037;DHT22;30340;52.004;5.908;2023-03-14T10:47:02;8.80;82.40
42037;DHT22;30340;52.004;5.908;2023-03-14T10:49:34;8.80;82.30
42037;DHT22;30340;52.004;5.908;2023-03-14T10:52:24;8.80;82.40
42037;DHT22;30340;52.004;5.908;2023-03-14T10:55:01;8.70;82.10
42037;DHT22;30340;52.004;5.908;2023-03-14T10:57:27;8.70;82.00
42037;DHT22;30340;52.004;5.908;2023-03-14T10:59:55;8.70;81.90
42037;DHT22;30340;52.004;5.908;2023-03-14T11:02:40;8.70;82.10
42037;DHT22;30340;52.004;5.908;2023-03-14T11:05:27;8.60;82.20
42037;DHT22;30340;52.004;5.908;2023-03-14T11:11:06;8.20;82.90
42037;DHT22;30340;52.004;5.908;2023-03-14T11:13:41;8.10;82.80
42037;DHT22;30340;52.004;5.908;2023-03-14T11:18:47;8.30;82.90
42037;DHT22;30340;52.004;5.908;2023-03-14T11:28:49;8.30;82.50
42037;DHT22;30340;52.004;5.908;2023-03-14T11:31:28;8.10;82.70
42037;DHT22;30340;52.004;5.908;2023-03-14T11:36:55;7.90;83.20
42037;DHT22;30340;52.004;5.908;2023-03-14T11:39:21;8.00;83.30
42037;DHT22;30340;52.004;5.908;2023-03-14T11:41:52;8.10;83.20
42037;DHT22;30340;52.004;5.908;2023-03-14T11:44:32;8.20;82.90
42037;DHT22;30340;52.004;5.908;2023-03-14T11:47:11;8.30;82.70
42037;DHT22;30340;52.004;5.908;2023-03-14T11:57:29;8.50;81.70
42037;DHT22;30340;52.004;5.908;2023-03-14T12:00:04;8.60;80.90
42037;DHT22;30340;52.004;5.908;2023-03-14T12:10:48;9.10;79.10
42037;DHT22;30340;52.004;5.908;2023-03-14T12:13:15;9.10;78.00
42037;DHT22;30340;52.004;5.908;2023-03-14T12:15:50;9.00;77.60
42037;DHT22;30340;52.004;5.908;2023-03-14T12:18:30;9.00;77.40
42037;DHT22;30340;52.004;5.908;2023-03-14T12:21:01;8.90;76.50
42037;DHT22;30340;52.004;5.908;2023-03-14T12:23:39;8.80;76.40
42037;DHT22;30340;52.004;5.908;2023-03-14T12:26:20;8.80;75.70
42037;DHT22;30340;52.004;5.908;2023-03-14T12:28:52;9.00;73.90
42037;DHT22;30340;52.004;5.908;2023-03-14T12:34:48;9.40;73.50
42037;DHT22;30340;52.004;5.908;2023-03-14T12:36:51;9.50;71.80
42037;DHT22;30340;52.004;5.908;2023-03-14T12:42:10;9.70;70.10
42037;DHT22;30340;52.004;5.908;2023-03-14T12:44:40;9.70;69.50
42037;DHT22;30340;52.004;5.908;2023-03-14T12:49:51;9.70;67.90
42037;DHT22;30340;52.004;5.908;2023-03-14T12:52:28;9.70;67.20
42037;DHT22;30340;52.004;5.908;2023-03-14T12:57:42;9.80;66.40
42037;DHT22;30340;52.004;5.908;2023-03-14T13:00:19;9.80;66.50
42037;DHT22;30340;52.004;5.908;2023-03-14T13:02:46;9.80;65.60
42037;DHT22;30340;52.004;5.908;2023-03-14T13:05:24;9.90;64.80
42037;DHT22;30340;52.004;5.908;2023-03-14T13:15:41;10.00;64.30
42037;DHT22;30340;52.004;5.908;2023-03-14T13:18:13;10.00;63.90
42037;DHT22;30340;52.004;5.908;2023-03-14T13:20:52;10.10;63.90
42037;DHT22;30340;52.004;5.908;2023-03-14T13:23:27;10.20;63.70
42037;DHT22;30340;52.004;5.908;2023-03-14T13:25:53;10.20;62.60
42037;DHT22;30340;52.004;5.908;2023-03-14T13:28:19;10.20;62.80
42037;DHT22;30340;52.004;5.908;2023-03-14T13:30:47;10.20;63.00
42037;DHT22;30340;52.004;5.908;2023-03-14T13:33:18;10.10;62.40
42037;DHT22;30340;52.004;5.908;2023-03-14T13:35:53;10.10;61.30
42037;DHT22;30340;52.004;5.908;2023-03-14T13:38:23;10.00;61.00
42037;DHT22;30340;52.004;5.908;2023-03-14T13:40:50;10.00;60.20
42037;DHT22;30340;52.004;5.908;2023-03-14T13:43:20;10.00;59.80
42037;DHT22;30340;52.004;5.908;2023-03-14T13:48:14;10.00;61.30
42037;DHT22;30340;52.004;5.908;2023-03-14T13:50:58;10.10;61.10
42037;DHT22;30340;52.004;5.908;2023-03-14T13:53:25;10.10;60.20
42037;DHT22;30340;52.004;5.908;2023-03-14T13:55:51;10.10;59.70
42037;DHT22;30340;52.004;5.908;2023-03-14T14:01:02;10.30;59.60
42037;DHT22;30340;52.004;5.908;2023-03-14T14:03:32;10.40;59.50
42037;DHT22;30340;52.004;5.908;2023-03-14T14:05:58;10.50;58.60
42037;DHT22;30340;52.004;5.908;2023-03-14T14:08:24;10.40;57.20
42037;DHT22;30340;52.004;5.908;2023-03-14T14:10:59;10.30;57.70
42037;DHT22;30340;52.004;5.908;2023-03-14T14:13:30;10.20;58.10
42037;DHT22;30340;52.004;5.908;2023-03-14T14:15:59;10.00;58.30
42037;DHT22;30340;52.004;5.908;2023-03-14T14:18:27;9.80;58.00
42037;DHT22;30340;52.004;5.908;2023-03-14T14:20:54;9.70;58.20
42037;DHT22;30340;52.004;5.908;2023-03-14T14:23:22;9.60;58.80
42037;DHT22;30340;52.004;5.908;2023-03-14T14:25:55;9.80;59.80
42037;DHT22;30340;52.004;5.908;2023-03-14T14:31:26;10.00;59.20
42037;DHT22;30340;52.004;5.908;2023-03-14T14:34:01;10.10;58.60
42037;DHT22;30340;52.004;5.908;2023-03-14T14:36:31;10.20;58.30
42037;DHT22;30340;52.004;5.908;2023-03-14T14:39:09;10.30;57.90
42037;DHT22;30340;52.004;5.908;2023-03-14T14:41:40;10.30;57.90
42037;DHT22;30340;52.004;5.908;2023-03-14T14:44:07;10.40;57.80
42037;DHT22;30340;52.004;5.908;2023-03-14T14:46:36;10.40;57.10
42037;DHT22;30340;52.004;5.908;2023-03-14T14:49:06;10.30;56.00
42037;DHT22;30340;52.004;5.908;2023-03-14T14:51:39;10.20;56.30
42037;DHT22;30340;52.004;5.908;2023-03-14T14:54:15;9.90;56.00
42037;DHT22;30340;52.004;5.908;2023-03-14T14:56:46;9.90;56.80
42037;DHT22;30340;52.004;5.908;2023-03-14T14:59:25;9.80;57.40
42037;DHT22;30340;52.004;5.908;2023-03-14T15:01:56;9.80;57.50
42037;DHT22;30340;52.004;5.908;2023-03-14T15:04:22;9.60;56.40
42037;DHT22;30340;52.004;5.908;2023-03-14T15:06:49;9.40;55.90
42037;DHT22;30340;52.004;5.908;2023-03-14T15:09:16;9.30;56.00
42037;DHT22;30340;52.004;5.908;2023-03-14T15:11:46;9.30;55.90
42037;DHT22;30340;52.004;5.908;2023-03-14T15:14:12;9.40;56.50
42037;DHT22;30340;52.004;5.908;2023-03-14T15:16:38;9.30;56.60
42037;DHT22;30340;52.004;5.908;2023-03-14T15:19:23;9.30;56.90
42037;DHT22;30340;52.004;5.908;2023-03-14T15:21:50;9.30;56.10
42037;DHT22;30340;52.004;5.908;2023-03-14T15:24:16;9.20;55.70
42037;DHT22;30340;52.004;5.908;2023-03-14T15:26:41;9.10;55.60
42037;DHT22;30340;52.004;5.908;2023-03-14T15:29:10;8.90;55.60
42037;DHT22;30340;52.004;5.908;2023-03-14T15:31:38;8.90;56.70
42037;DHT22;30340;52.004;5.908;2023-03-14T15:34:04;8.90;56.90
42037;DHT22;30340;52.004;5.908;2023-03-14T15:36:32;8.90;57.30
42037;DHT22;30340;52.004;5.908;2023-03-14T15:38:59;8.90;57.30
42037;DHT22;30340;52.004;5.908;2023-03-14T15:41:26;8.90;57.50
42037;DHT22;30340;52.004;5.908;2023-03-14T15:43:52;8.80;57.20
42037;DHT22;30340;52.004;5.908;2023-03-14T15:46:17;8.80;57.60
42037;DHT22;30340;52.004;5.908;2023-03-14T15:48:44;8.70;57.50
42037;DHT22;30340;52.004;5.908;2023-03-14T15:51:10;8.70;57.90
42037;DHT22;30340;52.004;5.908;2023-03-14T15:53:36;8.60;58.20
42037;DHT22;30340;52.004;5.908;2023-03-14T15:56:06;8.60;58.40
42037;DHT22;30340;52.004;5.908;2023-03-14T15:58:32;8.60;58.60
42037;DHT22;30340;52.004;5.908;2023-03-14T16:01:00;8.50;58.90
42037;DHT22;30340;52.004;5.908;2023-03-14T16:03:27;8.50;59.30
42037;DHT22;30340;52.004;5.908;2023-03-14T16:05:52;8.50;59.70
42037;DHT22;30340;52.004;5.908;2023-03-14T16:08:18;8.50;59.80
42037;DHT22;30340;52.004;5.908;2023-03-14T16:10:45;8.50;60.50
42037;DHT22;30340;52.004;5.908;2023-03-14T16:13:11;8.40;60.00
42037;DHT22;30340;52.004;5.908;2023-03-14T16:15:36;8.40;60.40
42037;DHT22;30340;52.004;5.908;2023-03-14T16:18:02;8.40;60.60
42037;DHT22;30340;52.004;5.908;2023-03-14T16:20:28;8.40;60.40
42037;DHT22;30340;52.004;5.908;2023-03-14T16:22:54;8.30;60.60
42037;DHT22;30340;52.004;5.908;2023-03-14T16:25:20;8.30;61.00
42037;DHT22;30340;52.004;5.908;2023-03-14T16:27:45;8.30;61.20
42037;DHT22;30340;52.004;5.908;2023-03-14T16:30:11;8.30;61.40
42037;DHT22;30340;52.004;5.908;2023-03-14T16:32:38;8.30;61.60
42037;DHT22;30340;52.004;5.908;2023-03-14T16:35:05;8.30;61.60
42037;DHT22;30340;52.004;5.908;2023-03-14T16:37:30;8.30;61.70
42037;DHT22;30340;52.004;5.908;2023-03-14T16:39:56;8.20;61.40
42037;DHT22;30340;52.004;5.908;2023-03-14T16:42:22;8.10;61.40
42037;DHT22;30340;52.004;5.908;2023-03-14T16:44:48;8.20;61.80
42037;DHT22;30340;52.004;5.908;2023-03-14T16:47:13;8.20;61.90
42037;DHT22;30340;52.004;5.908;2023-03-14T16:49:39;8.10;61.70
42037;DHT22;30340;52.004;5.908;2023-03-14T16:52:05;8.10;61.50
42037;DHT22;30340;52.004;5.908;2023-03-14T16:54:34;8.00;61.50
42037;DHT22;30340;52.004;5.908;2023-03-14T16:57:00;8.00;62.00
42037;DHT22;30340;52.004;5.908;2023-03-14T16:59:25;8.00;62.00